createdAt,value
2019-04-26T00:02:32.763Z,16.70
2019-04-26T00:05:38.900Z,16.36
2019-04-26T00:08:49.414Z,16.30
2019-04-26T00:12:12.920Z,16.30
2019-04-26T00:15:37.414Z,16.27
2019-04-26T00:18:43.287Z,16.33
2019-04-26T00:21:49.102Z,16.44
2019-04-26T00:24:55.460Z,16.42
2019-04-26T00:28:01.399Z,16.32
2019-04-26T00:31:07.355Z,16.32
2019-04-26T00:34:13.593Z,16.39
2019-04-26T00:37:20.186Z,16.39
2019-04-26T00:40:26.089Z,16.07
2019-04-26T00:43:32.127Z,16.02
2019-04-26T00:46:39.551Z,16.00
2019-04-26T00:49:46.540Z,15.97
2019-04-26T00:52:53.607Z,15.77
2019-04-26T00:56:00.383Z,15.68
2019-04-26T00:59:08.114Z,15.82
2019-04-26T01:02:20.579Z,15.80
2019-04-26T01:05:27.462Z,15.87
2019-04-26T01:08:33.216Z,15.60
2019-04-26T01:11:38.914Z,15.69
2019-04-26T01:14:44.828Z,15.61
2019-04-26T01:17:50.509Z,15.61
2019-04-26T01:20:59.208Z,15.65
2019-04-26T01:24:08.555Z,15.30
2019-04-26T01:27:19.457Z,15.48
2019-04-26T01:30:27.928Z,15.35
2019-04-26T01:33:36.395Z,15.25
2019-04-26T01:36:43.195Z,15.09
2019-04-26T01:39:55.451Z,15.12
2019-04-26T01:43:38.660Z,15.15
2019-04-26T01:46:47.104Z,15.30
2019-04-26T01:49:54.011Z,15.35
2019-04-26T01:53:01.193Z,15.21
2019-04-26T01:56:06.897Z,15.19
2019-04-26T01:59:15.223Z,15.32
2019-04-26T02:02:48.962Z,15.49
2019-04-26T02:05:55.936Z,15.21
2019-04-26T02:09:04.408Z,15.30
2019-04-26T02:12:12.077Z,15.01
2019-04-26T02:15:20.642Z,15.08
2019-04-26T02:18:27.333Z,15.03
2019-04-26T02:21:38.785Z,14.97
2019-04-26T02:24:46.744Z,15.26
2019-04-26T02:27:52.523Z,15.15
2019-04-26T02:30:58.779Z,15.28
2019-04-26T02:34:06.145Z,15.59
2019-04-26T02:37:14.776Z,15.59
2019-04-26T02:40:20.591Z,15.83
2019-04-26T02:43:29.644Z,15.89
2019-04-26T02:46:54.166Z,15.92
2019-04-26T02:50:04.476Z,15.86
2019-04-26T02:53:29.551Z,16.17
2019-04-26T02:56:40.097Z,16.26
2019-04-26T02:59:49.776Z,16.11
2019-04-26T03:03:06.076Z,16.12
2019-04-26T03:06:12.891Z,16.20
2019-04-26T03:09:20.140Z,15.58
2019-04-26T03:12:30.943Z,15.38
2019-04-26T03:16:01.554Z,15.66
2019-04-26T03:19:34.084Z,15.93
2019-04-26T03:23:20.096Z,15.79
2019-04-26T03:26:37.425Z,15.93
2019-04-26T03:30:18.774Z,15.48
2019-04-26T03:33:54.820Z,15.79
2019-04-26T03:37:26.836Z,15.93
2019-04-26T03:40:45.751Z,16.31
2019-04-26T03:44:04.542Z,16.35
2019-04-26T03:47:15.760Z,15.87
2019-04-26T03:50:28.642Z,15.18
2019-04-26T03:53:48.457Z,15.18
2019-04-26T03:57:24.659Z,15.86
2019-04-26T04:00:50.009Z,15.86
2019-04-26T04:04:01.589Z,15.65
2019-04-26T04:07:11.033Z,15.81
2019-04-26T04:10:21.242Z,15.81
2019-04-26T04:13:51.401Z,15.81
2019-04-26T04:17:23.335Z,16.11
2019-04-26T04:21:03.415Z,16.61
2019-04-26T04:24:19.017Z,16.88
2019-04-26T04:27:39.324Z,16.51
2019-04-26T04:31:13.819Z,16.95
2019-04-26T04:34:26.702Z,16.95
2019-04-26T04:37:52.708Z,17.23
2019-04-26T04:41:28.502Z,16.86
2019-04-26T04:45:06.854Z,16.86
2019-04-26T04:48:34.568Z,16.93
2019-04-26T04:52:07.975Z,17.26
2019-04-26T04:55:25.682Z,17.51
2019-04-26T04:58:42.971Z,17.51
2019-04-26T05:02:23.403Z,17.83
2019-04-26T05:05:49.050Z,18.05
2019-04-26T05:09:12.202Z,17.69
2019-04-26T05:12:39.224Z,17.84
2019-04-26T05:16:26.435Z,17.41
2019-04-26T05:20:00.438Z,17.65
2019-04-26T05:23:59.801Z,18.28
2019-04-26T05:27:46.888Z,18.17
2019-04-26T05:31:32.128Z,18.24
2019-04-26T05:34:56.954Z,18.70
2019-04-26T05:38:22.932Z,19.07
2019-04-26T05:42:31.933Z,19.42
2019-04-26T05:46:35.885Z,19.42
2019-04-26T05:50:56.563Z,19.66
2019-04-26T05:54:45.905Z,19.82
2019-04-26T05:58:32.524Z,20.05
2019-04-26T06:02:11.761Z,20.32
2019-04-26T06:05:43.736Z,20.48
2019-04-26T06:09:43.215Z,20.36
2019-04-26T06:13:46.252Z,20.91
2019-04-26T06:17:46.356Z,21.12
2019-04-26T06:21:06.942Z,21.09
2019-04-26T06:24:53.978Z,21.39
2019-04-26T06:28:05.865Z,21.46
2019-04-26T06:31:17.786Z,21.66
2019-04-26T06:34:55.656Z,21.49
2019-04-26T06:38:57.802Z,21.82
2019-04-26T06:42:27.866Z,21.86
2019-04-26T06:46:23.359Z,21.92
2019-04-26T06:49:55.284Z,21.98
2019-04-26T06:53:15.153Z,22.16
2019-04-26T06:56:52.118Z,22.14
2019-04-26T07:00:25.526Z,21.91
2019-04-26T07:04:00.010Z,22.31
2019-04-26T07:07:37.732Z,22.34
2019-04-26T07:11:32.861Z,22.99
2019-04-26T07:15:30.606Z,23.32
2019-04-26T07:18:56.062Z,23.36
2019-04-26T07:22:49.532Z,23.29
2019-04-26T07:26:40.384Z,23.61
2019-04-26T07:30:23.951Z,22.92
2019-04-26T07:34:07.807Z,23.39
2019-04-26T07:37:39.197Z,23.40
2019-04-26T07:41:16.802Z,24.11
2019-04-26T07:44:54.893Z,23.48
2019-04-26T07:48:45.748Z,23.07
2019-04-26T07:52:30.192Z,23.57
2019-04-26T07:56:09.304Z,23.78
2019-04-26T07:59:45.436Z,23.91
2019-04-26T08:03:28.652Z,24.09
2019-04-26T08:06:50.770Z,23.82
2019-04-26T08:10:14.765Z,24.07
2019-04-26T08:13:23.621Z,24.83
2019-04-26T08:16:44.201Z,24.27
2019-04-26T08:20:00.989Z,24.40
2019-04-26T08:23:35.041Z,24.09
2019-04-26T08:26:22.908Z,24.91
2019-04-26T08:29:33.314Z,24.97
2019-04-26T08:32:46.771Z,25.20
2019-04-26T08:35:56.036Z,25.68
2019-04-26T08:39:05.962Z,25.72
2019-04-26T08:42:19.984Z,25.96
2019-04-26T08:45:44.125Z,25.92
2019-04-26T08:49:13.115Z,26.20
2019-04-26T08:52:23.499Z,26.34
2019-04-26T08:55:32.094Z,26.71
2019-04-26T08:58:41.811Z,26.46
2019-04-26T09:02:02.384Z,26.42
2019-04-26T09:05:21.019Z,26.82
2019-04-26T09:08:30.565Z,26.90
2019-04-26T09:11:38.814Z,26.97
2019-04-26T09:14:49.612Z,27.09
2019-04-26T09:17:55.323Z,26.99
2019-04-26T09:21:01.647Z,26.79
2019-04-26T09:24:17.279Z,26.98
2019-04-26T09:27:48.125Z,26.90
2019-04-26T09:31:15.342Z,26.70
2019-04-26T09:34:21.039Z,26.73
2019-04-26T09:37:27.561Z,26.95
2019-04-26T09:40:33.304Z,27.10
2019-04-26T09:43:47.361Z,27.46
2019-04-26T09:47:12.005Z,27.40
2019-04-26T09:50:27.571Z,27.41
2019-04-26T09:53:33.266Z,27.84
2019-04-26T09:56:39.812Z,27.94
2019-04-26T09:59:45.593Z,27.57
2019-04-26T10:02:53.544Z,27.23
2019-04-26T10:06:00.081Z,27.11
2019-04-26T10:09:12.912Z,27.34
2019-04-26T10:12:48.579Z,27.20
2019-04-26T10:16:05.589Z,27.41
2019-04-26T10:19:15.381Z,27.49
2019-04-26T10:22:23.261Z,26.92
2019-04-26T10:25:30.094Z,26.84
2019-04-26T10:28:35.733Z,27.50
2019-04-26T10:31:41.787Z,27.76
2019-04-26T10:34:48.925Z,27.41
2019-04-26T10:37:55.945Z,27.56
2019-04-26T10:41:02.556Z,27.48
2019-04-26T10:44:08.217Z,26.71
2019-04-26T10:47:15.805Z,26.32
2019-04-26T10:50:21.831Z,26.39
2019-04-26T10:53:53.949Z,26.16
2019-04-26T10:57:13.632Z,25.82
2019-04-26T11:00:27.093Z,26.39
2019-04-26T11:03:35.002Z,26.75
2019-04-26T11:06:40.885Z,26.50
2019-04-26T11:09:47.292Z,26.77
2019-04-26T11:12:54.463Z,26.87
2019-04-26T11:16:02.388Z,27.19
2019-04-26T11:19:11.826Z,27.39
2019-04-26T11:22:28.634Z,27.54
2019-04-26T11:25:28.159Z,26.98
2019-04-26T11:28:34.530Z,26.63
2019-04-26T11:31:40.304Z,26.46
2019-04-26T11:34:46.011Z,26.48
2019-04-26T11:37:55.186Z,26.99
2019-04-26T11:41:06.160Z,27.40
2019-04-26T11:44:07.695Z,27.32
2019-04-26T11:47:14.265Z,27.70
2019-04-26T11:50:20.750Z,27.82
2019-04-26T11:53:26.765Z,27.10
2019-04-26T11:56:34.009Z,27.41
2019-04-26T11:59:40.091Z,27.82
2019-04-26T12:02:46.251Z,27.60
2019-04-26T12:06:24.765Z,27.17
2019-04-26T12:09:37.490Z,27.19
2019-04-26T12:12:47.087Z,27.29
2019-04-26T12:15:51.832Z,27.26
2019-04-26T12:18:58.252Z,27.38
2019-04-26T12:22:08.211Z,27.19
2019-04-26T12:25:12.443Z,27.09
2019-04-26T12:28:19.701Z,27.59
2019-04-26T12:31:25.349Z,27.56
2019-04-26T12:34:31.786Z,27.67
2019-04-26T12:37:37.448Z,27.73
2019-04-26T12:40:46.118Z,27.73
2019-04-26T12:43:54.502Z,27.79
2019-04-26T12:47:17.911Z,27.93
2019-04-26T12:50:24.626Z,27.89
2019-04-26T12:53:31.185Z,27.65
2019-04-26T12:56:38.632Z,27.59
2019-04-26T12:59:44.691Z,27.50
2019-04-26T13:02:54.230Z,27.40
2019-04-26T13:05:59.138Z,27.68
2019-04-26T13:09:07.944Z,27.95
2019-04-26T13:12:26.023Z,27.50
2019-04-26T13:16:06.632Z,27.77
2019-04-26T13:19:16.061Z,27.55
2019-04-26T13:22:20.397Z,27.43
2019-04-26T13:25:27.868Z,27.62
2019-04-26T13:28:34.474Z,27.39
2019-04-26T13:31:40.172Z,27.42
2019-04-26T13:34:46.715Z,27.48
2019-04-26T13:37:52.423Z,27.31
2019-04-26T13:40:59.814Z,27.29
2019-04-26T13:44:06.430Z,27.61
2019-04-26T13:47:28.970Z,28.01
2019-04-26T13:50:38.771Z,28.01
2019-04-26T13:53:44.792Z,27.95
2019-04-26T13:56:50.516Z,27.69
2019-04-26T13:59:57.262Z,27.96
2019-04-26T14:03:03.348Z,27.69
2019-04-26T14:06:09.966Z,27.80
2019-04-26T14:09:16.406Z,27.71
2019-04-26T14:12:22.056Z,27.76
2019-04-26T14:15:28.683Z,28.16
2019-04-26T14:18:38.539Z,28.13
2019-04-26T14:21:41.914Z,27.92
2019-04-26T14:24:58.541Z,28.07
2019-04-26T14:28:05.341Z,27.94
2019-04-26T14:31:12.204Z,28.12
2019-04-26T14:34:19.114Z,28.03
2019-04-26T14:37:24.972Z,27.92
2019-04-26T14:40:30.659Z,28.01
2019-04-26T14:43:41.006Z,27.92
2019-04-26T14:46:48.980Z,27.73
2019-04-26T14:49:53.387Z,27.62
2019-04-26T14:53:02.480Z,27.56
2019-04-26T14:56:08.448Z,27.48
2019-04-26T14:59:15.187Z,27.38
2019-04-26T15:02:47.422Z,27.15
2019-04-26T15:06:16.928Z,27.07
2019-04-26T15:09:30.250Z,26.78
2019-04-26T15:12:29.325Z,26.78
2019-04-26T15:15:35.195Z,26.76
2019-04-26T15:18:44.494Z,26.85
2019-04-26T15:21:52.892Z,27.03
2019-04-26T15:25:03.434Z,27.08
2019-04-26T15:28:11.953Z,27.08
2019-04-26T15:31:21.566Z,27.06
2019-04-26T15:34:28.434Z,27.10
2019-04-26T15:37:34.151Z,27.26
2019-04-26T15:41:11.509Z,27.19
2019-04-26T15:44:28.184Z,27.09
2019-04-26T15:47:52.357Z,27.03
2019-04-26T15:50:59.128Z,27.06
2019-04-26T15:54:04.812Z,26.69
2019-04-26T15:57:12.303Z,26.66
2019-04-26T16:00:18.913Z,26.58
2019-04-26T16:03:25.268Z,26.38
2019-04-26T16:06:32.259Z,26.42
2019-04-26T16:09:42.345Z,26.41
2019-04-26T16:12:52.356Z,26.30
2019-04-26T16:15:58.184Z,26.37
2019-04-26T16:19:04.021Z,26.21
2019-04-26T16:22:09.705Z,25.97
2019-04-26T16:25:16.922Z,25.83
2019-04-26T16:28:42.991Z,25.77
2019-04-26T16:32:09.710Z,25.69
2019-04-26T16:35:18.340Z,25.48
2019-04-26T16:38:36.813Z,25.38
2019-04-26T16:41:42.591Z,25.32
2019-04-26T16:44:48.310Z,25.24
2019-04-26T16:47:53.963Z,25.23
2019-04-26T16:51:01.030Z,25.15
2019-04-26T16:54:10.815Z,24.91
2019-04-26T16:57:16.228Z,24.92
2019-04-26T17:00:31.797Z,24.78
2019-04-26T17:03:30.682Z,24.89
2019-04-26T17:06:44.435Z,24.77
2019-04-26T17:09:57.940Z,24.75
2019-04-26T17:12:54.400Z,24.68
2019-04-26T17:16:00.328Z,24.55
2019-04-26T17:19:06.876Z,24.42
2019-04-26T17:22:23.259Z,24.41
2019-04-26T17:25:48.751Z,24.25
2019-04-26T17:28:55.611Z,24.21
2019-04-26T17:32:02.551Z,24.29
2019-04-26T17:35:08.709Z,24.11
2019-04-26T17:38:14.386Z,24.05
2019-04-26T17:41:20.108Z,23.98
2019-04-26T17:44:26.842Z,23.92
2019-04-26T17:47:36.725Z,23.86
2019-04-26T17:50:42.352Z,23.80
2019-04-26T17:53:50.657Z,23.76
2019-04-26T17:56:57.977Z,23.65
2019-04-26T18:00:07.984Z,23.68
2019-04-26T18:03:14.985Z,23.74
2019-04-26T18:06:29.475Z,23.54
2019-04-26T18:09:41.681Z,23.52
2019-04-26T18:12:40.766Z,23.50
2019-04-26T18:15:48.360Z,23.50
2019-04-26T18:19:16.826Z,23.39
2019-04-26T18:22:34.574Z,23.29
2019-04-26T18:25:41.236Z,23.17
2019-04-26T18:28:51.858Z,23.15
2019-04-26T18:31:54.831Z,23.12
2019-04-26T18:35:02.157Z,23.10
2019-04-26T18:38:12.654Z,22.96
2019-04-26T18:41:16.957Z,23.20
2019-04-26T18:44:35.901Z,23.14
2019-04-26T18:47:34.987Z,22.98
2019-04-26T18:50:41.611Z,22.91
2019-04-26T18:54:09.193Z,22.81
2019-04-26T18:57:17.157Z,22.75
2019-04-26T19:00:29.175Z,22.64
2019-04-26T19:03:35.591Z,22.68
2019-04-26T19:06:42.320Z,22.57
2019-04-26T19:09:58.744Z,22.55
2019-04-26T19:13:00.059Z,22.43
2019-04-26T19:16:28.455Z,22.26
2019-04-26T19:19:53.355Z,22.33
2019-04-26T19:23:02.970Z,22.26
2019-04-26T19:26:09.444Z,22.09
2019-04-26T19:29:27.412Z,21.85
2019-04-26T19:32:26.535Z,21.89
2019-04-26T19:35:33.741Z,21.65
2019-04-26T19:38:43.761Z,21.75
2019-04-26T19:41:51.964Z,21.54
2019-04-26T19:45:11.906Z,21.49
2019-04-26T19:48:12.484Z,21.62
2019-04-26T19:51:52.186Z,21.56
2019-04-26T19:55:24.059Z,21.54
2019-04-26T19:58:32.077Z,21.59
2019-04-26T20:01:38.036Z,21.40
2019-04-26T20:04:44.441Z,21.39
2019-04-26T20:07:51.872Z,21.31
2019-04-26T20:10:57.903Z,21.10
2019-04-26T20:14:04.395Z,20.93
2019-04-26T20:17:13.163Z,20.73
2019-04-26T20:20:21.423Z,20.62
2019-04-26T20:23:25.631Z,20.71
2019-04-26T20:26:32.227Z,20.61
2019-04-26T20:29:40.796Z,20.61
2019-04-26T20:32:47.018Z,20.49
2019-04-26T20:35:53.038Z,20.39
2019-04-26T20:38:59.153Z,20.33
2019-04-26T20:42:04.843Z,20.17
2019-04-26T20:45:16.574Z,19.99
2019-04-26T20:48:21.361Z,20.02
2019-04-26T20:51:28.015Z,19.90
2019-04-26T20:54:34.605Z,20.06
2019-04-26T20:57:42.753Z,20.02
2019-04-26T21:00:54.102Z,19.68
2019-04-26T21:03:55.798Z,19.72
2019-04-26T21:07:02.424Z,19.92
2019-04-26T21:10:14.566Z,19.77
2019-04-26T21:13:17.197Z,19.83
2019-04-26T21:16:23.719Z,19.81
2019-04-26T21:19:32.742Z,19.89
2019-04-26T21:22:38.486Z,19.84
2019-04-26T21:26:16.622Z,19.72
2019-04-26T21:29:45.086Z,19.77
2019-04-26T21:33:09.861Z,19.79
2019-04-26T21:36:45.910Z,20.05
2019-04-26T21:40:10.068Z,19.86
2019-04-26T21:43:16.806Z,20.12
2019-04-26T21:46:23.013Z,20.25
2019-04-26T21:49:29.626Z,20.23
2019-04-26T21:52:36.328Z,19.87
2019-04-26T21:55:43.478Z,19.62
2019-04-26T21:58:50.179Z,19.43
2019-04-26T22:01:59.144Z,19.23
2019-04-26T22:05:08.076Z,19.02
2019-04-26T22:08:16.959Z,18.91
2019-04-26T22:11:23.162Z,19.28
2019-04-26T22:14:34.134Z,19.16
2019-04-26T22:17:41.659Z,19.03
2019-04-26T22:20:57.093Z,18.84
2019-04-26T22:24:23.348Z,18.76
2019-04-26T22:27:30.235Z,18.46
2019-04-26T22:30:35.949Z,18.66
2019-04-26T22:33:42.872Z,18.70
2019-04-26T22:36:50.583Z,18.79
2019-04-26T22:39:56.354Z,18.60
2019-04-26T22:43:16.242Z,18.45
2019-04-26T22:46:49.323Z,18.09
2019-04-26T22:49:54.580Z,18.32
2019-04-26T22:53:01.101Z,18.61
2019-04-26T22:56:07.315Z,18.33
2019-04-26T22:59:14.001Z,18.14
2019-04-26T23:02:25.342Z,18.23
2019-04-26T23:05:30.626Z,18.23
2019-04-26T23:08:38.262Z,18.20
2019-04-26T23:11:47.108Z,18.00
2019-04-26T23:15:13.292Z,18.28
2019-04-26T23:18:53.843Z,18.13
2019-04-26T23:22:00.327Z,18.04
2019-04-26T23:25:06.840Z,17.92
2019-04-26T23:28:14.384Z,17.76
2019-04-26T23:31:20.102Z,17.63
2019-04-26T23:34:26.668Z,17.58
2019-04-26T23:37:33.366Z,17.75
2019-04-26T23:40:39.922Z,17.73
2019-04-26T23:43:45.579Z,17.69
2019-04-26T23:46:54.977Z,17.52
2019-04-26T23:49:59.378Z,17.43
2019-04-26T23:53:06.069Z,17.25
2019-04-26T23:56:16.246Z,17.07
2019-04-26T23:59:20.840Z,16.97
